x

Venice, Fl (venf1) Weather Station

12:00am - Fri 31st Jul 2015 All times are EDT. -4 hours from GMT.

  • Wind
    14mph, 15mph gusts
  • Sea Temp 85°f
  • Air Temp 84°f
  • Sea Pressure 1015.8mb
  • Venice, Fl
  • Venice, Fl

More Historic Weather Station data

Upgrade to MSW Pro to gain access to the past 30 days of data for over 8000 Wavebouys and Weather Stations around the globe.

Join Pro

Comparision Forecast

View Surf forecast
   
Fri 07/31 12:00am 14 15 mph 1015.8mb 85f 84f
Thu 07/30 11:00pm 11 13 mph 1015.9mb 85f 84f
10:00pm 11 14 mph 1015.5mb 86f 84f
9:00pm 13 14 mph 1015.1mb 86f 84f
8:00pm 16 18 mph 1014.7mb 86f 84f
7:00pm 15 16 mph 1014.1mb 86f 85f
6:00pm 16 17 mph 1013.8mb 86f 85f
5:00pm 14 15 mph 1014.4mb 86f 85f
4:00pm 16 17 mph 1014.6mb 85f 85f
3:00pm 15 16 mph 1015.1mb 85f 85f
2:00pm 14 15 mph 1015.5mb 85f 85f
1:00pm 15
mph
1016.1mb 85f 85f
12:00pm 10 11 mph 1016.5mb 85f 85f
11:00am 9
mph
1016.5mb 85f 84f
10:00am 5 6 mph 1016.2mb 85f 84f
9:00am 9
mph
1015.9mb 85f 84f
8:00am 8 9 mph 1015.5mb 85f 84f
7:00am 8 9 mph 1014.9mb 85f 83f
6:00am 10 11 mph 1014.3mb 85f 83f
5:00am 7 8 mph 1014.5mb 85f 82f
4:00am 10 11 mph 1014.8mb 85f 83f
3:00am 10 11 mph 1014.8mb 85f 83f
2:00am 13 14 mph 1015mb 85f 83f
1:00am 13 14 mph 1015.5mb 85f 83f
12:00am 14 15 mph 1015.6mb 85f 83f
Wed 07/29 11:00pm 10 13 mph 1015.5mb 85f 83f
10:00pm 11 14 mph 1015.1mb 85f 83f
9:00pm 13 14 mph 1014.8mb 85f 82f
8:00pm 13 14 mph 1014.5mb 85f 83f
7:00pm 13 14 mph 1014.2mb 85f 83f
6:00pm 16 18 mph 1013.9mb 85f 82f
5:00pm 15 16 mph 1014.8mb 85f 82f
4:00pm 16 18 mph 1015.2mb 85f 83f
3:00pm 15 16 mph 1015.8mb 85f 82f
2:00pm 8
mph
1016.3mb 85f 83f
1:00pm 9 10 mph 1016.4mb 85f 80f
11:00am 8 9 mph 1016.7mb 85f 80f
10:00am 9 10 mph 1015.9mb 85f 80f
9:00am 10 13 mph 1016.4mb 85f 78f
8:00am 6 8 mph 1015mb 85f 78f
7:00am 11 13 mph 1014.2mb 85f 83f
6:00am 11 13 mph 1014.1mb 85f 84f
5:00am 13 14 mph 1013.9mb 85f 84f
4:00am 14 15 mph 1014.1mb 85f 84f
3:00am 15 16 mph 1013.9mb 85f 84f
2:00am 20
mph
1014.5mb 84f 84f
1:00am 11 14 mph 1014.6mb 85f 84f
12:00am 15 16 mph 1015.3mb 85f 84f
Tue 07/28 11:00pm 14 15 mph 1015.4mb 85f 84f
10:00pm 14 16 mph 1015.3mb 85f 84f
9:00pm 11 13 mph 1015.2mb 85f 84f
8:00pm 15 17 mph 1014.5mb 85f 85f
7:00pm 14 16 mph 1014.2mb 85f 85f
6:00pm 10 13 mph 1014mb 85f 84f
5:00pm 11 13 mph 1014.4mb 85f 84f
4:00pm 15 17 mph 1014.6mb 85f 83f
3:00pm 14 15 mph 1015mb 85f 82f
2:00pm 10 13 mph 1015.3mb 85f 84f
1:00pm 11 13 mph 1015.7mb 85f 84f
12:00pm 17 22 mph 1015.8mb 84f 85f
11:00am 16 17 mph 1016mb 84f 85f
10:00am 15 17 mph 1015.8mb 83f 85f
9:00am 16 17 mph 1015.4mb 83f 85f
8:00am 17 18 mph 1015.1mb 83f 84f
7:00am 16 18 mph 1014.4mb 83f 83f
6:00am 18 21 mph 1013.7mb 83f 83f
5:00am 16 17 mph 1013.7mb 83f 83f
4:00am 17 21 mph 1013.6mb 83f 83f
3:00am 16 17 mph 1013.5mb 83f 83f
2:00am 16 18 mph 1013.9mb 83f 83f
1:00am 18 21 mph 1014.4mb 84f 83f
12:00am 17 18 mph 1014.6mb 84f 83f
Mon 07/27 11:00pm 16 18 mph 1014.8mb 84f 83f
10:00pm 14 16 mph 1014.3mb 84f 83f
9:00pm 16 17 mph 1013.9mb 84f 83f
8:00pm 18 21 mph 1013.6mb 84f 83f
7:00pm 18 21 mph 1013.6mb 84f 83f
6:00pm 15 16 mph 1013.3mb 84f 83f
5:00pm 20 22 mph 1013.7mb 84f 83f
4:00pm 22 23 mph 1013.6mb 84f 83f
3:00pm 21 25 mph 1014.1mb 84f 82f
2:00pm 17 20 mph 1014.4mb 84f 83f
1:00pm 16 17 mph 1014.9mb 84f 81f
12:00pm 18 21 mph 1014.8mb 84f 81f
11:00am 20 22 mph 1014.4mb 84f 81f
10:00am 18 21 mph 1014.1mb 84f 83f
9:00am 23 25 mph 1013mb 84f 82f
8:00am 22 25 mph 1012.8mb 84f 80f
7:00am 24 25 mph 1012.3mb 84f 81f
6:00am 20 22 mph 1011.7mb 84f 81f